createdAt,value
2018-06-12T00:00:27.483Z,100251.99
2018-06-12T00:02:55.173Z,99894.92
2018-06-12T00:05:22.894Z,100252.38
2018-06-12T00:07:50.563Z,100245.61
2018-06-12T00:10:18.246Z,100254.92
2018-06-12T00:12:45.950Z,100266.58
2018-06-12T00:15:13.653Z,100266.77
2018-06-12T00:17:41.354Z,100279.48
2018-06-12T00:20:09.116Z,100274.03
2018-06-12T00:22:36.842Z,100277.61
2018-06-12T00:25:04.573Z,100277.52
2018-06-12T00:27:32.332Z,100282.05
2018-06-12T00:30:00.034Z,100280.89
2018-06-12T00:32:27.809Z,100286.82
2018-06-12T00:34:55.597Z,100282.13
2018-06-12T00:37:23.352Z,100296.09
2018-06-12T00:39:51.056Z,100305.95
2018-06-12T00:42:18.788Z,100300.75
2018-06-12T00:44:46.474Z,100305.47
2018-06-12T00:47:14.158Z,100303.64
2018-06-12T00:49:41.860Z,100321.18
2018-06-12T00:52:09.599Z,100311.89
2018-06-12T00:54:37.289Z,100319.75
2018-06-12T00:57:07.125Z,100318.53
2018-06-12T00:59:34.823Z,100325.13
2018-06-12T01:02:02.803Z,100329.59
2018-06-12T01:04:30.513Z,100331.87
2018-06-12T01:06:58.212Z,100333.44
2018-06-12T01:09:25.905Z,100335.95
2018-06-12T01:11:53.635Z,100344.84
2018-06-12T01:14:21.325Z,100347.59
2018-06-12T01:16:49.001Z,100351.06
2018-06-12T01:19:16.705Z,100358.94
2018-06-12T01:21:44.422Z,100352.55
2018-06-12T01:24:12.110Z,100362.48
2018-06-12T01:26:39.842Z,100367.19
2018-06-12T01:29:07.528Z,100358.94
2018-06-12T01:31:35.235Z,100374.17
2018-06-12T01:34:03.066Z,100370.55
2018-06-12T01:36:30.798Z,100364.34
2018-06-12T01:38:58.540Z,100378.63
2018-06-12T01:41:26.405Z,100376.36
2018-06-12T01:43:54.091Z,100370.55
2018-06-12T01:46:21.758Z,100379.98
2018-06-12T01:48:49.433Z,100378.30
2018-06-12T01:51:17.125Z,100377.84
2018-06-12T01:53:44.835Z,100370.47
2018-06-12T01:56:12.574Z,100381.09
2018-06-12T01:58:40.259Z,100388.66
2018-06-12T02:01:07.953Z,100388.91
2018-06-12T02:03:35.741Z,100393.86
2018-06-12T02:06:03.457Z,100396.16
2018-06-12T02:08:31.125Z,100363.96
2018-06-12T02:10:58.849Z,100397.21
2018-06-12T02:13:26.534Z,100402.67
2018-06-12T02:15:54.210Z,100407.11
2018-06-12T02:18:21.901Z,100419.17
2018-06-12T02:20:49.607Z,100420.11
2018-06-12T02:23:17.318Z,100414.92
2018-06-12T02:25:45.059Z,100422.07
2018-06-12T02:28:12.737Z,100423.84
2018-06-12T02:30:40.436Z,100421.83
2018-06-12T02:33:08.155Z,100436.05
2018-06-12T02:35:35.854Z,100436.29
2018-06-12T02:38:03.574Z,100433.95
2018-06-12T02:40:31.267Z,100441.20
2018-06-12T02:42:58.942Z,100439.06
2018-06-12T02:45:26.622Z,100443.98
2018-06-12T02:47:54.341Z,100448.58
2018-06-12T02:50:22.001Z,100450.02
2018-06-12T02:52:49.673Z,100445.05
2018-06-12T02:55:17.390Z,100444.69
2018-06-12T02:57:45.079Z,100449.23
2018-06-12T03:00:12.748Z,100456.84
2018-06-12T03:02:40.476Z,100458.40
2018-06-12T03:05:08.167Z,100462.02
2018-06-12T03:07:35.857Z,100458.58
2018-06-12T03:10:03.662Z,100459.03
2018-06-12T03:12:31.368Z,100467.08
2018-06-12T03:14:59.074Z,100468.89
2018-06-12T03:17:26.762Z,100474.50
2018-06-12T03:19:54.444Z,100469.20
2018-06-12T03:22:22.120Z,100475.02
2018-06-12T03:24:49.852Z,100480.33
2018-06-12T03:27:17.552Z,100485.13
2018-06-12T03:29:45.226Z,100485.59
2018-06-12T03:32:12.936Z,100490.09
2018-06-12T03:34:40.928Z,100485.39
2018-06-12T03:37:08.682Z,100492.63
2018-06-12T03:39:36.382Z,100490.52
2018-06-12T03:42:04.170Z,100500.45
2018-06-12T03:44:31.843Z,100496.03
2018-06-12T03:46:59.541Z,100502.22
2018-06-12T03:49:27.230Z,100499.55
2018-06-12T03:51:54.903Z,100509.57
2018-06-12T03:54:22.597Z,100259.77
2018-06-12T03:56:50.321Z,100506.80
2018-06-12T03:59:17.985Z,100513.84
2018-06-12T04:01:45.825Z,100512.02
2018-06-12T04:04:13.495Z,100508.77
2018-06-12T04:06:41.194Z,100503.62
2018-06-12T04:09:09.051Z,100511.83
2018-06-12T04:11:36.855Z,100516.88
2018-06-12T04:14:04.566Z,100509.62
2018-06-12T04:16:32.258Z,100512.05
2018-06-12T04:18:59.933Z,100511.37
2018-06-12T04:21:27.618Z,100516.91
2018-06-12T04:23:55.334Z,100521.13
2018-06-12T04:26:23.017Z,100520.05
2018-06-12T04:28:50.701Z,100525.00
2018-06-12T04:31:18.404Z,100524.04
2018-06-12T04:33:46.096Z,100518.48
2018-06-12T04:36:13.799Z,100515.26
2018-06-12T04:38:41.526Z,100514.87
2018-06-12T04:41:09.221Z,100524.05
2018-06-12T04:43:36.907Z,100521.05
2018-06-12T04:46:04.657Z,100527.07
2018-06-12T04:48:32.363Z,100524.52
2018-06-12T04:51:00.041Z,100519.82
2018-06-12T04:53:27.753Z,100520.69
2018-06-12T04:55:55.430Z,100518.27
2018-06-12T04:58:23.155Z,100524.42
2018-06-12T05:00:50.875Z,100518.03
2018-06-12T05:03:18.566Z,100528.63
2018-06-12T05:05:46.481Z,100524.66
2018-06-12T05:08:14.418Z,100517.20
2018-06-12T05:10:42.127Z,100515.75
2018-06-12T05:13:09.786Z,100516.96
2018-06-12T05:15:37.487Z,100515.73
2018-06-12T05:18:05.251Z,100519.61
2018-06-12T05:20:32.933Z,100515.29
2018-06-12T05:23:00.626Z,100516.67
2018-06-12T05:25:28.317Z,100520.25
2018-06-12T05:27:56.042Z,100520.61
2018-06-12T05:30:23.734Z,100475.00
2018-06-12T05:32:51.418Z,100520.58
2018-06-12T05:35:19.099Z,100520.84
2018-06-12T05:37:46.822Z,100530.12
2018-06-12T05:40:14.478Z,100523.02
2018-06-12T05:42:42.301Z,100534.58
2018-06-12T05:45:09.981Z,100534.36
2018-06-12T05:47:37.658Z,100524.08
2018-06-12T05:50:05.338Z,100534.58
2018-06-12T05:52:33.033Z,100538.21
2018-06-12T05:55:00.716Z,100537.11
2018-06-12T05:57:28.473Z,100539.05
2018-06-12T05:59:56.198Z,100537.30
2018-06-12T06:02:23.956Z,100547.02
2018-06-12T06:04:51.626Z,100541.45
2018-06-12T06:07:19.338Z,100547.70
2018-06-12T06:09:47.016Z,100547.57
2018-06-12T06:12:14.679Z,100552.52
2018-06-12T06:14:42.363Z,100537.00
2018-06-12T06:17:10.068Z,100545.55
2018-06-12T06:19:37.816Z,100549.51
2018-06-12T06:22:05.547Z,100549.37
2018-06-12T06:24:33.337Z,100547.06
2018-06-12T06:27:01.018Z,100552.45
2018-06-12T06:29:28.881Z,100549.98
2018-06-12T06:31:56.596Z,100558.09
2018-06-12T06:34:24.265Z,100563.26
2018-06-12T06:36:51.962Z,100558.41
2018-06-12T06:39:19.673Z,100565.23
2018-06-12T06:41:47.368Z,100564.88
2018-06-12T06:44:15.078Z,100557.61
2018-06-12T06:46:42.800Z,100547.34
2018-06-12T06:49:10.510Z,100554.53
2018-06-12T06:51:38.254Z,100549.48
2018-06-12T06:54:05.982Z,100555.40
2018-06-12T06:56:33.693Z,100560.17
2018-06-12T06:59:01.402Z,100563.89
2018-06-12T07:01:29.107Z,100559.56
2018-06-12T07:03:56.793Z,100566.60
2018-06-12T07:06:24.528Z,100559.95
2018-06-12T07:08:52.217Z,100558.84
2018-06-12T07:11:19.941Z,100560.17
2018-06-12T07:13:47.812Z,100549.78
2018-06-12T07:16:15.515Z,100549.17
2018-06-12T07:18:43.233Z,100551.18
2018-06-12T07:21:21.989Z,100550.05
2018-06-12T07:23:49.706Z,100550.52
2018-06-12T07:26:17.444Z,100555.36
2018-06-12T07:28:45.237Z,100557.62
2018-06-12T07:31:12.933Z,100558.52
2018-06-12T07:33:40.699Z,100551.72
2018-06-12T07:36:08.462Z,100550.61
2018-06-12T07:38:36.177Z,100545.48
2018-06-12T07:41:03.990Z,100552.22
2018-06-12T07:43:31.789Z,100551.77
2018-06-12T07:45:59.548Z,100554.98
2018-06-12T07:48:27.275Z,100563.69
2018-06-12T07:50:55.005Z,100550.16
2018-06-12T07:53:22.697Z,100552.48
2018-06-12T07:55:50.393Z,100559.23
2018-06-12T07:58:18.124Z,100557.25
2018-06-12T08:00:45.810Z,100556.40
2018-06-12T08:03:13.503Z,100545.75
2018-06-12T08:05:41.238Z,100544.95
2018-06-12T08:08:08.944Z,100541.53
2018-06-12T08:10:36.718Z,100546.88
2018-06-12T08:13:04.482Z,100549.78
2018-06-12T08:15:32.281Z,100555.60
2018-06-12T08:17:59.989Z,100553.39
2018-06-12T08:20:27.712Z,100547.50
2018-06-12T08:22:55.387Z,100549.19
2018-06-12T08:25:23.078Z,100553.31
2018-06-12T08:27:50.836Z,100550.20
2018-06-12T08:30:18.602Z,100552.59
2018-06-12T08:32:46.262Z,100556.08
2018-06-12T08:35:13.978Z,100547.62
2018-06-12T08:37:41.662Z,100552.05
2018-06-12T08:40:09.389Z,100546.05
2018-06-12T08:42:37.813Z,100551.45
2018-06-12T08:45:05.534Z,100548.01
2018-06-12T08:47:33.338Z,100554.35
2018-06-12T08:50:01.050Z,100548.24
2018-06-12T08:52:28.735Z,100555.69
2018-06-12T08:54:56.433Z,100549.10
2018-06-12T08:57:24.154Z,100546.03
2018-06-12T08:59:51.853Z,100542.34
2018-06-12T09:02:19.887Z,100542.41
2018-06-12T09:04:47.610Z,100543.77
2018-06-12T09:07:15.313Z,100553.25
2018-06-12T09:09:43.017Z,100544.02
2018-06-12T09:12:10.713Z,100542.41
2018-06-12T09:14:38.448Z,100541.24
2018-06-12T09:17:06.153Z,100550.77
2018-06-12T09:19:33.865Z,100545.38
2018-06-12T09:22:01.565Z,100546.13
2018-06-12T09:24:29.267Z,100546.42
2018-06-12T09:26:56.999Z,100550.56
2018-06-12T09:29:24.687Z,100550.49
2018-06-12T09:31:52.383Z,100553.72
2018-06-12T09:34:20.078Z,100543.75
2018-06-12T09:36:47.808Z,100552.13
2018-06-12T09:39:15.516Z,100548.05
2018-06-12T09:41:43.252Z,100548.32
2018-06-12T09:44:11.082Z,100544.67
2018-06-12T09:46:38.850Z,100544.67
2018-06-12T09:49:06.634Z,100546.48
2018-06-12T09:51:34.329Z,100541.09
2018-06-12T09:54:02.050Z,100541.82
2018-06-12T09:56:29.790Z,100546.94
2018-06-12T09:58:57.474Z,100549.48
2018-06-12T10:01:25.176Z,100535.72
2018-06-12T10:03:53.253Z,100544.71
2018-06-12T10:06:20.913Z,100547.12
2018-06-12T10:08:48.563Z,100555.16
2018-06-12T10:11:16.247Z,100548.91
2018-06-12T10:13:43.929Z,100538.35
2018-06-12T10:16:11.613Z,100541.38
2018-06-12T10:18:39.353Z,100540.38
2018-06-12T10:21:07.073Z,100541.82
2018-06-12T10:23:34.786Z,100534.27
2018-06-12T10:26:02.526Z,100536.94
2018-06-12T10:28:30.186Z,100537.81
2018-06-12T10:30:57.877Z,100538.17
2018-06-12T10:33:25.583Z,100542.47
2018-06-12T10:35:53.235Z,100541.70
2018-06-12T10:38:20.915Z,100542.88
2018-06-12T10:40:48.624Z,100538.45
2018-06-12T10:43:16.321Z,100529.67
2018-06-12T10:45:43.998Z,100538.09
2018-06-12T10:48:11.706Z,100527.94
2018-06-12T10:50:39.362Z,100541.45
2018-06-12T10:53:07.078Z,100532.42
2018-06-12T10:55:34.762Z,100549.41
2018-06-12T10:58:02.440Z,100543.33
2018-06-12T11:00:30.117Z,100542.56
2018-06-12T11:02:57.843Z,100542.96
2018-06-12T11:05:28.610Z,100543.91
2018-06-12T11:07:56.305Z,100547.80
2018-06-12T11:10:23.982Z,100549.16
2018-06-12T11:12:51.649Z,100555.92
2018-06-12T11:15:19.516Z,100561.63
2018-06-12T11:17:47.205Z,100555.59
2018-06-12T11:20:14.877Z,100560.73
2018-06-12T11:22:42.534Z,100555.09
2018-06-12T11:25:10.210Z,100567.12
2018-06-12T11:27:37.873Z,100554.45
2018-06-12T11:30:05.604Z,100564.34
2018-06-12T11:32:33.289Z,100574.48
2018-06-12T11:35:00.983Z,100568.59
2018-06-12T11:37:28.669Z,100565.94
2018-06-12T11:39:56.360Z,100567.47
2018-06-12T11:42:24.006Z,100567.79
2018-06-12T11:44:51.690Z,100574.06
2018-06-12T11:47:19.490Z,100575.36
2018-06-12T11:49:47.118Z,100583.02
2018-06-12T11:52:14.770Z,100588.72
2018-06-12T11:54:42.459Z,100577.95
2018-06-12T11:57:10.242Z,100573.08
2018-06-12T11:59:37.887Z,100584.09
2018-06-12T12:02:05.729Z,100575.67
2018-06-12T12:04:33.389Z,100585.02
2018-06-12T12:07:01.151Z,100585.16
2018-06-12T12:09:28.817Z,100587.72
2018-06-12T12:11:56.520Z,100584.09
2018-06-12T12:14:24.198Z,100586.86
2018-06-12T12:16:51.922Z,100587.62
2018-06-12T12:19:19.587Z,100584.02
2018-06-12T12:21:47.242Z,100588.95
2018-06-12T12:24:14.934Z,100593.19
2018-06-12T12:26:42.610Z,100590.97
2018-06-12T12:29:10.312Z,100587.58
2018-06-12T12:31:38.093Z,100595.85
2018-06-12T12:34:05.813Z,100602.34
2018-06-12T12:36:33.519Z,100602.72
2018-06-12T12:39:01.210Z,100601.67
2018-06-12T12:41:28.898Z,100602.92
2018-06-12T12:43:56.608Z,100602.36
2018-06-12T12:46:24.362Z,100597.13
2018-06-12T12:48:52.060Z,100584.19
2018-06-12T12:51:19.725Z,100588.30
2018-06-12T12:53:47.431Z,100595.79
2018-06-12T12:56:15.121Z,100599.68
2018-06-12T12:58:42.837Z,100589.59
2018-06-12T13:01:10.534Z,100595.28
2018-06-12T13:03:38.201Z,100591.04
2018-06-12T13:06:05.998Z,100593.41
2018-06-12T13:08:33.790Z,100581.95
2018-06-12T13:11:01.466Z,100597.41
2018-06-12T13:13:29.118Z,100595.59
2018-06-12T13:15:56.840Z,100589.75
2018-06-12T13:18:24.554Z,100600.38
2018-06-12T13:20:52.244Z,100593.19
2018-06-12T13:23:19.925Z,100596.98
2018-06-12T13:25:47.613Z,100593.73
2018-06-12T13:28:15.277Z,100593.28
2018-06-12T13:30:42.973Z,100594.16
2018-06-12T13:33:11.081Z,100554.75
2018-06-12T13:35:38.773Z,100587.73
2018-06-12T13:38:06.492Z,100592.08
2018-06-12T13:40:34.158Z,100598.00
2018-06-12T13:43:01.841Z,100606.22
2018-06-12T13:45:29.522Z,100602.28
2018-06-12T13:47:57.157Z,100603.56
2018-06-12T13:50:24.801Z,100600.81
2018-06-12T13:52:52.487Z,100604.48
2018-06-12T13:55:20.203Z,100592.45
2018-06-12T13:57:48.054Z,100596.56
2018-06-12T14:00:15.766Z,100599.75
2018-06-12T14:02:43.430Z,100592.42
2018-06-12T14:05:11.086Z,100603.67
2018-06-12T14:07:38.816Z,100605.44
2018-06-12T14:10:06.490Z,100608.40
2018-06-12T14:12:34.214Z,100606.53
2018-06-12T14:15:01.940Z,100594.69
2018-06-12T14:17:29.623Z,100602.09
2018-06-12T14:19:57.350Z,100601.34
2018-06-12T14:22:25.030Z,100609.69
2018-06-12T14:24:52.697Z,100603.59
2018-06-12T14:27:20.346Z,100604.28
2018-06-12T14:29:48.101Z,100606.83
2018-06-12T14:32:15.769Z,100619.34
2018-06-12T14:34:43.446Z,100614.19
2018-06-12T14:37:11.170Z,100619.19
2018-06-12T14:39:38.855Z,100622.02
2018-06-12T14:42:06.517Z,100608.38
2018-06-12T14:44:34.190Z,100608.94
2018-06-12T14:47:01.843Z,100602.45
2018-06-12T14:49:29.695Z,100614.15
2018-06-12T14:51:57.519Z,100607.81
2018-06-12T14:54:25.213Z,100614.44
2018-06-12T14:56:52.934Z,100616.20
2018-06-12T14:59:20.634Z,100615.35
2018-06-12T15:01:48.394Z,100618.13
2018-06-12T15:04:16.110Z,100610.28
2018-06-12T15:06:43.786Z,100622.11
2018-06-12T15:09:11.521Z,100626.87
2018-06-12T15:11:39.186Z,100638.68
2018-06-12T15:14:06.916Z,100635.09
2018-06-12T15:16:34.628Z,100633.87
2018-06-12T15:19:02.376Z,100637.88
2018-06-12T15:21:30.070Z,100630.75
2018-06-12T15:23:57.737Z,100638.92
2018-06-12T15:26:25.402Z,100637.13
2018-06-12T15:28:53.105Z,100643.67
2018-06-12T15:31:20.782Z,100636.79
2018-06-12T15:33:48.437Z,100633.58
2018-06-12T15:36:16.118Z,100638.41
2018-06-12T15:38:43.833Z,100637.81
2018-06-12T15:41:11.556Z,100638.92
2018-06-12T15:43:39.420Z,100633.71
2018-06-12T15:46:07.238Z,100636.79
2018-06-12T15:48:35.038Z,100634.34
2018-06-12T15:51:02.921Z,100635.09
2018-06-12T15:53:30.810Z,100637.48
2018-06-12T15:55:58.585Z,100642.59
2018-06-12T15:58:26.357Z,100642.05
2018-06-12T16:00:54.148Z,100634.94
2018-06-12T16:03:21.805Z,100638.19
2018-06-12T16:05:49.533Z,100594.97
2018-06-12T16:08:17.215Z,100635.67
2018-06-12T16:10:44.921Z,100637.59
2018-06-12T16:13:12.681Z,100639.27
2018-06-12T16:15:40.392Z,100632.89
2018-06-12T16:18:08.083Z,100642.58
2018-06-12T16:20:35.906Z,100639.27
2018-06-12T16:23:03.621Z,100648.68
2018-06-12T16:25:31.430Z,100650.39
2018-06-12T16:27:59.179Z,100647.31
2018-06-12T16:30:26.910Z,100651.03
2018-06-12T16:32:54.716Z,100640.53
2018-06-12T16:35:22.541Z,100646.59
2018-06-12T16:37:50.346Z,100639.34
2018-06-12T16:40:18.198Z,100642.45
2018-06-12T16:42:46.001Z,100639.63
2018-06-12T16:45:13.797Z,100638.28
2018-06-12T16:47:41.498Z,100641.05
2018-06-12T16:50:09.395Z,100647.34
2018-06-12T16:52:37.090Z,100645.05
2018-06-12T16:55:04.887Z,100639.78
2018-06-12T16:57:32.769Z,100640.77
2018-06-12T17:00:00.490Z,100635.30
2018-06-12T17:02:28.179Z,100640.63
2018-06-12T17:04:55.942Z,100637.45
2018-06-12T17:07:23.630Z,100641.23
2018-06-12T17:09:51.321Z,100636.98
2018-06-12T17:12:19.197Z,100639.58
2018-06-12T17:14:46.889Z,100646.72
2018-06-12T17:17:14.547Z,100634.66
2018-06-12T17:19:42.262Z,100643.48
2018-06-12T17:22:09.946Z,100640.53
2018-06-12T17:24:37.630Z,100638.58
2018-06-12T17:27:05.329Z,100641.10
2018-06-12T17:29:33.025Z,100640.34
2018-06-12T17:32:00.710Z,100645.45
2018-06-12T17:34:28.452Z,100646.04
2018-06-12T17:36:56.141Z,100644.69
2018-06-12T17:39:23.805Z,100642.78
2018-06-12T17:41:51.619Z,100645.97
2018-06-12T17:44:19.306Z,100645.31
2018-06-12T17:46:46.953Z,100644.91
2018-06-12T17:49:14.673Z,100638.72
2018-06-12T17:51:42.369Z,100645.25
2018-06-12T17:54:10.026Z,100645.42
2018-06-12T17:56:37.754Z,100647.52
2018-06-12T17:59:05.402Z,100654.77
2018-06-12T18:01:33.083Z,100649.98
2018-06-12T18:04:00.894Z,100641.90
2018-06-12T18:06:28.534Z,100653.71
2018-06-12T18:08:56.186Z,100650.63
2018-06-12T18:11:23.870Z,100618.92
2018-06-12T18:13:51.583Z,100657.06
2018-06-12T18:16:19.246Z,100651.22
2018-06-12T18:18:46.932Z,100663.34
2018-06-12T18:21:14.597Z,100653.16
2018-06-12T18:23:42.282Z,100651.47
2018-06-12T18:26:10.015Z,100655.83
2018-06-12T18:28:37.774Z,100652.30
2018-06-12T18:31:05.434Z,100653.55
2018-06-12T18:33:33.145Z,100653.70
2018-06-12T18:36:00.808Z,100646.06
2018-06-12T18:38:28.493Z,100642.89
2018-06-12T18:40:56.213Z,100646.73
2018-06-12T18:43:23.869Z,100647.52
2018-06-12T18:45:51.546Z,100653.31
2018-06-12T18:48:19.259Z,100660.41
2018-06-12T18:50:46.947Z,100660.88
2018-06-12T18:53:14.654Z,100652.50
2018-06-12T18:55:42.462Z,100654.11
2018-06-12T18:58:10.149Z,100653.98
2018-06-12T19:00:37.822Z,100652.77
2018-06-12T19:03:05.541Z,100661.66
2018-06-12T19:05:33.239Z,100659.31
2018-06-12T19:08:00.974Z,100658.09
2018-06-12T19:10:28.687Z,100662.45
2018-06-12T19:12:56.497Z,100672.02
2018-06-12T19:15:24.154Z,100672.88
2018-06-12T19:17:51.853Z,100672.61
2018-06-12T19:20:19.513Z,100677.94
2018-06-12T19:22:47.223Z,100678.17
2018-06-12T19:25:14.926Z,100677.37
2018-06-12T19:27:42.590Z,100679.12
2018-06-12T19:30:10.278Z,100674.42
2018-06-12T19:32:37.970Z,100677.71
2018-06-12T19:35:05.674Z,100682.62
2018-06-12T19:37:33.337Z,100681.83
2018-06-12T19:40:01.029Z,100683.60
2018-06-12T19:42:28.670Z,100690.68
2018-06-12T19:44:56.325Z,100680.55
2018-06-12T19:47:24.034Z,100689.73
2018-06-12T19:49:51.682Z,100690.83
2018-06-12T19:52:19.454Z,100688.36
2018-06-12T19:54:47.209Z,100684.56
2018-06-12T19:57:14.886Z,100689.50
2018-06-12T19:59:42.546Z,100694.75
2018-06-12T20:02:10.273Z,100693.77
2018-06-12T20:04:37.931Z,100691.78
2018-06-12T20:07:05.673Z,100701.50
2018-06-12T20:09:33.373Z,100707.82
2018-06-12T20:12:01.038Z,100696.20
2018-06-12T20:14:28.721Z,100699.22
2018-06-12T20:16:56.390Z,100712.09
2018-06-12T20:19:24.145Z,100712.73
2018-06-12T20:21:51.873Z,100713.06
2018-06-12T20:24:19.585Z,100714.98
2018-06-12T20:26:47.658Z,100709.54
2018-06-12T20:29:15.375Z,100715.58
2018-06-12T20:31:43.046Z,100720.55
2018-06-12T20:34:10.725Z,100722.69
2018-06-12T20:36:38.372Z,100722.51
2018-06-12T20:39:08.243Z,100720.47
2018-06-12T20:41:36.374Z,100719.66
2018-06-12T20:44:04.358Z,100728.97
2018-06-12T20:46:32.040Z,100722.89
2018-06-12T20:48:59.718Z,100729.34
2018-06-12T20:51:27.775Z,100735.14
2018-06-12T20:53:56.090Z,100733.19
2018-06-12T20:56:23.752Z,100734.06
2018-06-12T20:58:52.314Z,100733.69
2018-06-12T21:01:20.070Z,100733.61
2018-06-12T21:03:48.250Z,100738.94
2018-06-12T21:06:15.934Z,100732.00
2018-06-12T21:08:43.637Z,100738.28
2018-06-12T21:11:11.312Z,100736.26
2018-06-12T21:13:39.254Z,100730.62
2018-06-12T21:16:06.966Z,100742.67
2018-06-12T21:18:34.650Z,100741.63
2018-06-12T21:21:02.523Z,100742.63
2018-06-12T21:23:30.498Z,100715.40
2018-06-12T21:25:59.422Z,100747.44
2018-06-12T21:28:27.092Z,100749.52
2018-06-12T21:30:54.830Z,100744.92
2018-06-12T21:33:22.479Z,100751.53
2018-06-12T21:35:50.215Z,100753.69
2018-06-12T21:38:18.349Z,100748.55
2018-06-12T21:40:46.014Z,100754.08
2018-06-12T21:43:13.665Z,100763.25
2018-06-12T21:45:41.495Z,100764.77
2018-06-12T21:48:10.371Z,100764.16
2018-06-12T21:50:38.553Z,100764.30
2018-06-12T21:53:06.250Z,100762.11
2018-06-12T21:55:33.917Z,100759.95
2018-06-12T21:58:01.653Z,100771.44
2018-06-12T22:00:32.291Z,100768.31
2018-06-12T22:03:00.658Z,100772.75
2018-06-12T22:05:28.502Z,100777.22
2018-06-12T22:07:56.263Z,100776.77
2018-06-12T22:10:24.170Z,100786.77
2018-06-12T22:12:52.030Z,100782.56
2018-06-12T22:15:19.686Z,100788.03
2018-06-12T22:17:46.977Z,100791.14
2018-06-12T22:20:15.004Z,100794.38
2018-06-12T22:22:42.674Z,100795.98
2018-06-12T22:25:10.358Z,100799.83
2018-06-12T22:27:38.034Z,100790.90
2018-06-12T22:30:05.798Z,100798.75
2018-06-12T22:32:33.478Z,100798.25
2018-06-12T22:35:01.144Z,100799.70
2018-06-12T22:37:28.865Z,100804.90
2018-06-12T22:39:56.502Z,100810.75
2018-06-12T22:42:24.157Z,100809.97
2018-06-12T22:44:51.857Z,100816.25
2018-06-12T22:47:19.540Z,100822.88
2018-06-12T22:49:47.201Z,100816.47
2018-06-12T22:52:14.899Z,100823.33
2018-06-12T22:54:42.648Z,100818.63
2018-06-12T22:57:10.339Z,100826.08
2018-06-12T22:59:38.033Z,100820.52
2018-06-12T23:02:06.051Z,100815.67
2018-06-12T23:04:33.714Z,100823.66
2018-06-12T23:07:01.455Z,100821.98
2018-06-12T23:09:29.125Z,100818.46
2018-06-12T23:11:56.765Z,100827.59
2018-06-12T23:14:24.465Z,100831.11
2018-06-12T23:16:52.159Z,100826.33
2018-06-12T23:19:19.871Z,100828.35
2018-06-12T23:21:58.118Z,100828.45
2018-06-12T23:24:25.911Z,100826.29
2018-06-12T23:26:53.578Z,100835.81
2018-06-12T23:29:21.296Z,100829.95
2018-06-12T23:31:48.978Z,100828.81
2018-06-12T23:34:16.663Z,100830.78
2018-06-12T23:36:44.389Z,100834.44
2018-06-12T23:39:12.072Z,100835.78
2018-06-12T23:41:39.753Z,100833.62
2018-06-12T23:44:07.430Z,100834.96
2018-06-12T23:46:35.073Z,100831.25
2018-06-12T23:49:02.742Z,100831.92
2018-06-12T23:51:30.409Z,100827.41
2018-06-12T23:53:58.093Z,100834.86
2018-06-12T23:56:25.828Z,100835.76
2018-06-12T23:58:53.593Z,100844.03
